sensor_id;sensor_type;location;lat;lon;timestamp;P1;durP1;ratioP1;P2;durP2;ratioP2
56893;SDS011;43392;50.078;13.704;2023-08-20T00:00:58;11.70;;;8.15;;
56893;SDS011;43392;50.078;13.704;2023-08-20T00:03:25;15.60;;;8.98;;
56893;SDS011;43392;50.078;13.704;2023-08-20T00:05:52;14.82;;;8.63;;
56893;SDS011;43392;50.078;13.704;2023-08-20T00:08:19;14.73;;;8.23;;
56893;SDS011;43392;50.078;13.704;2023-08-20T00:10:47;11.77;;;8.20;;
56893;SDS011;43392;50.078;13.704;2023-08-20T00:13:14;14.20;;;8.68;;
56893;SDS011;43392;50.078;13.704;2023-08-20T00:15:41;16.77;;;8.80;;
56893;SDS011;43392;50.078;13.704;2023-08-20T00:18:08;14.70;;;8.07;;
56893;SDS011;43392;50.078;13.704;2023-08-20T00:20:36;14.85;;;8.50;;
56893;SDS011;43392;50.078;13.704;2023-08-20T00:23:03;13.30;;;8.82;;
56893;SDS011;43392;50.078;13.704;2023-08-20T00:25:31;15.63;;;9.65;;
56893;SDS011;43392;50.078;13.704;2023-08-20T00:27:59;12.15;;;9.52;;
56893;SDS011;43392;50.078;13.704;2023-08-20T00:30:26;15.00;;;9.07;;
56893;SDS011;43392;50.078;13.704;2023-08-20T00:32:52;16.23;;;9.05;;
56893;SDS011;43392;50.078;13.704;2023-08-20T00:35:19;14.30;;;8.75;;
56893;SDS011;43392;50.078;13.704;2023-08-20T00:37:46;14.43;;;8.90;;
56893;SDS011;43392;50.078;13.704;2023-08-20T00:40:12;13.85;;;8.93;;
56893;SDS011;43392;50.078;13.704;2023-08-20T00:42:39;12.05;;;8.38;;
56893;SDS011;43392;50.078;13.704;2023-08-20T00:45:07;11.55;;;8.25;;
56893;SDS011;43392;50.078;13.704;2023-08-20T00:47:34;11.90;;;8.18;;
56893;SDS011;43392;50.078;13.704;2023-08-20T00:50:02;12.82;;;8.30;;
56893;SDS011;43392;50.078;13.704;2023-08-20T00:52:32;13.57;;;7.60;;
56893;SDS011;43392;50.078;13.704;2023-08-20T00:54:59;12.32;;;7.78;;
56893;SDS011;43392;50.078;13.704;2023-08-20T00:57:30;11.18;;;7.57;;
56893;SDS011;43392;50.078;13.704;2023-08-20T00:59:56;10.32;;;7.22;;
56893;SDS011;43392;50.078;13.704;2023-08-20T01:02:25;14.27;;;8.55;;
56893;SDS011;43392;50.078;13.704;2023-08-20T01:04:52;13.27;;;8.32;;
56893;SDS011;43392;50.078;13.704;2023-08-20T01:07:20;14.70;;;9.10;;
56893;SDS011;43392;50.078;13.704;2023-08-20T01:09:57;15.57;;;8.73;;
56893;SDS011;43392;50.078;13.704;2023-08-20T01:12:32;13.93;;;8.93;;
56893;SDS011;43392;50.078;13.704;2023-08-20T01:15:00;16.42;;;8.38;;
56893;SDS011;43392;50.078;13.704;2023-08-20T01:17:28;12.52;;;8.50;;
56893;SDS011;43392;50.078;13.704;2023-08-20T01:19:56;15.50;;;8.43;;
56893;SDS011;43392;50.078;13.704;2023-08-20T01:25:50;9.85;;;7.13;;
56893;SDS011;43392;50.078;13.704;2023-08-20T01:28:34;11.10;;;7.43;;
56893;SDS011;43392;50.078;13.704;2023-08-20T01:31:02;11.32;;;6.90;;
56893;SDS011;43392;50.078;13.704;2023-08-20T01:33:29;13.40;;;6.93;;
56893;SDS011;43392;50.078;13.704;2023-08-20T01:35:57;10.60;;;6.93;;
56893;SDS011;43392;50.078;13.704;2023-08-20T01:38:24;10.05;;;6.70;;
56893;SDS011;43392;50.078;13.704;2023-08-20T01:40:51;8.85;;;6.43;;
56893;SDS011;43392;50.078;13.704;2023-08-20T01:43:17;9.65;;;6.85;;
56893;SDS011;43392;50.078;13.704;2023-08-20T01:45:45;12.02;;;7.32;;
56893;SDS011;43392;50.078;13.704;2023-08-20T01:48:12;13.15;;;7.35;;
56893;SDS011;43392;50.078;13.704;2023-08-20T01:50:39;13.68;;;8.75;;
56893;SDS011;43392;50.078;13.704;2023-08-20T01:53:05;12.30;;;8.57;;
56893;SDS011;43392;50.078;13.704;2023-08-20T01:55:32;12.20;;;8.45;;
56893;SDS011;43392;50.078;13.704;2023-08-20T01:57:58;14.20;;;8.40;;
56893;SDS011;43392;50.078;13.704;2023-08-20T02:00:25;17.42;;;10.98;;
56893;SDS011;43392;50.078;13.704;2023-08-20T02:02:55;16.80;;;11.20;;
56893;SDS011;43392;50.078;13.704;2023-08-20T02:05:21;19.25;;;10.40;;
56893;SDS011;43392;50.078;13.704;2023-08-20T02:07:48;13.63;;;10.27;;
56893;SDS011;43392;50.078;13.704;2023-08-20T02:10:15;14.93;;;9.20;;
56893;SDS011;43392;50.078;13.704;2023-08-20T02:12:41;15.80;;;10.05;;
56893;SDS011;43392;50.078;13.704;2023-08-20T02:15:08;16.88;;;11.82;;
56893;SDS011;43392;50.078;13.704;2023-08-20T02:17:37;18.23;;;11.88;;
56893;SDS011;43392;50.078;13.704;2023-08-20T02:20:05;17.23;;;12.25;;
56893;SDS011;43392;50.078;13.704;2023-08-20T02:22:34;17.40;;;13.18;;
56893;SDS011;43392;50.078;13.704;2023-08-20T02:25:01;17.00;;;11.52;;
56893;SDS011;43392;50.078;13.704;2023-08-20T02:27:28;19.70;;;11.77;;
56893;SDS011;43392;50.078;13.704;2023-08-20T02:29:54;19.75;;;13.13;;
56893;SDS011;43392;50.078;13.704;2023-08-20T02:32:21;24.77;;;12.93;;
56893;SDS011;43392;50.078;13.704;2023-08-20T02:34:48;18.80;;;12.13;;
56893;SDS011;43392;50.078;13.704;2023-08-20T02:37:17;16.17;;;11.60;;
56893;SDS011;43392;50.078;13.704;2023-08-20T02:39:43;17.27;;;11.10;;
56893;SDS011;43392;50.078;13.704;2023-08-20T02:42:10;15.77;;;10.75;;
56893;SDS011;43392;50.078;13.704;2023-08-20T02:44:37;16.33;;;11.05;;
56893;SDS011;43392;50.078;13.704;2023-08-20T02:47:03;16.75;;;10.98;;
56893;SDS011;43392;50.078;13.704;2023-08-20T02:49:30;17.05;;;10.73;;
56893;SDS011;43392;50.078;13.704;2023-08-20T02:51:57;17.52;;;12.38;;
56893;SDS011;43392;50.078;13.704;2023-08-20T02:54:25;20.08;;;12.48;;
56893;SDS011;43392;50.078;13.704;2023-08-20T02:56:52;16.27;;;11.82;;
56893;SDS011;43392;50.078;13.704;2023-08-20T02:59:18;16.92;;;12.07;;
56893;SDS011;43392;50.078;13.704;2023-08-20T03:01:45;23.48;;;16.35;;
56893;SDS011;43392;50.078;13.704;2023-08-20T03:04:11;35.22;;;25.60;;
56893;SDS011;43392;50.078;13.704;2023-08-20T03:06:38;46.08;;;33.95;;
56893;SDS011;43392;50.078;13.704;2023-08-20T03:09:05;35.72;;;28.10;;
56893;SDS011;43392;50.078;13.704;2023-08-20T03:11:33;37.92;;;24.30;;
56893;SDS011;43392;50.078;13.704;2023-08-20T03:13:59;35.92;;;26.17;;
56893;SDS011;43392;50.078;13.704;2023-08-20T03:16:26;33.22;;;22.90;;
56893;SDS011;43392;50.078;13.704;2023-08-20T03:18:53;26.15;;;16.88;;
56893;SDS011;43392;50.078;13.704;2023-08-20T03:21:19;24.30;;;15.88;;
56893;SDS011;43392;50.078;13.704;2023-08-20T03:23:46;19.25;;;14.10;;
56893;SDS011;43392;50.078;13.704;2023-08-20T03:26:12;19.33;;;14.85;;
56893;SDS011;43392;50.078;13.704;2023-08-20T03:28:40;21.02;;;13.85;;
56893;SDS011;43392;50.078;13.704;2023-08-20T03:31:07;19.10;;;12.82;;
56893;SDS011;43392;50.078;13.704;2023-08-20T03:33:33;19.27;;;12.93;;
56893;SDS011;43392;50.078;13.704;2023-08-20T03:36:00;19.27;;;12.82;;
56893;SDS011;43392;50.078;13.704;2023-08-20T03:38:27;18.88;;;13.35;;
56893;SDS011;43392;50.078;13.704;2023-08-20T03:40:54;20.85;;;13.23;;
56893;SDS011;43392;50.078;13.704;2023-08-20T03:43:21;20.88;;;12.65;;
56893;SDS011;43392;50.078;13.704;2023-08-20T03:45:50;20.55;;;14.55;;
56893;SDS011;43392;50.078;13.704;2023-08-20T03:48:17;26.10;;;18.60;;
56893;SDS011;43392;50.078;13.704;2023-08-20T03:50:44;21.63;;;15.80;;
56893;SDS011;43392;50.078;13.704;2023-08-20T03:53:10;17.45;;;13.52;;
56893;SDS011;43392;50.078;13.704;2023-08-20T03:55:37;20.92;;;13.65;;
56893;SDS011;43392;50.078;13.704;2023-08-20T03:58:03;22.17;;;12.32;;
56893;SDS011;43392;50.078;13.704;2023-08-20T04:00:30;16.85;;;12.13;;
56893;SDS011;43392;50.078;13.704;2023-08-20T04:02:58;16.58;;;11.00;;
56893;SDS011;43392;50.078;13.704;2023-08-20T04:05:24;14.85;;;9.90;;
56893;SDS011;43392;50.078;13.704;2023-08-20T04:07:51;13.65;;;8.90;;
56893;SDS011;43392;50.078;13.704;2023-08-20T04:10:18;12.85;;;8.20;;
56893;SDS011;43392;50.078;13.704;2023-08-20T04:12:44;11.20;;;7.50;;
56893;SDS011;43392;50.078;13.704;2023-08-20T04:15:11;13.35;;;9.38;;
56893;SDS011;43392;50.078;13.704;2023-08-20T04:17:37;13.50;;;9.95;;
56893;SDS011;43392;50.078;13.704;2023-08-20T04:20:06;13.05;;;9.52;;
56893;SDS011;43392;50.078;13.704;2023-08-20T04:22:34;14.55;;;10.75;;
56893;SDS011;43392;50.078;13.704;2023-08-20T04:25:02;13.82;;;10.43;;
56893;SDS011;43392;50.078;13.704;2023-08-20T04:27:29;14.77;;;9.52;;
56893;SDS011;43392;50.078;13.704;2023-08-20T04:29:56;11.55;;;8.77;;
56893;SDS011;43392;50.078;13.704;2023-08-20T04:32:22;13.07;;;8.20;;
56893;SDS011;43392;50.078;13.704;2023-08-20T04:34:49;14.65;;;8.63;;
56893;SDS011;43392;50.078;13.704;2023-08-20T04:37:18;13.57;;;8.18;;
56893;SDS011;43392;50.078;13.704;2023-08-20T04:39:45;14.57;;;8.73;;
56893;SDS011;43392;50.078;13.704;2023-08-20T04:42:11;17.55;;;10.30;;
56893;SDS011;43392;50.078;13.704;2023-08-20T04:44:38;21.00;;;14.18;;
56893;SDS011;43392;50.078;13.704;2023-08-20T04:47:04;26.20;;;14.68;;
56893;SDS011;43392;50.078;13.704;2023-08-20T04:49:31;21.17;;;15.45;;
56893;SDS011;43392;50.078;13.704;2023-08-20T04:51:58;21.77;;;15.10;;
56893;SDS011;43392;50.078;13.704;2023-08-20T04:54:26;18.90;;;13.50;;
56893;SDS011;43392;50.078;13.704;2023-08-20T04:56:52;21.00;;;13.98;;
56893;SDS011;43392;50.078;13.704;2023-08-20T04:59:19;22.13;;;15.88;;
56893;SDS011;43392;50.078;13.704;2023-08-20T05:01:46;20.77;;;14.77;;
56893;SDS011;43392;50.078;13.704;2023-08-20T05:04:12;25.50;;;18.83;;
56893;SDS011;43392;50.078;13.704;2023-08-20T05:06:39;26.58;;;19.73;;
56893;SDS011;43392;50.078;13.704;2023-08-20T05:09:05;23.77;;;19.38;;
56893;SDS011;43392;50.078;13.704;2023-08-20T05:11:33;27.60;;;20.38;;
56893;SDS011;43392;50.078;13.704;2023-08-20T05:14:00;30.52;;;20.83;;
56893;SDS011;43392;50.078;13.704;2023-08-20T05:16:26;29.05;;;19.65;;
56893;SDS011;43392;50.078;13.704;2023-08-20T05:18:53;27.60;;;18.75;;
56893;SDS011;43392;50.078;13.704;2023-08-20T05:21:20;27.50;;;20.00;;
56893;SDS011;43392;50.078;13.704;2023-08-20T05:23:46;31.98;;;19.98;;
56893;SDS011;43392;50.078;13.704;2023-08-20T05:26:13;29.73;;;20.05;;
56893;SDS011;43392;50.078;13.704;2023-08-20T05:28:41;23.98;;;17.83;;
56893;SDS011;43392;50.078;13.704;2023-08-20T05:31:07;23.58;;;18.33;;
56893;SDS011;43392;50.078;13.704;2023-08-20T05:33:35;25.42;;;18.40;;
56893;SDS011;43392;50.078;13.704;2023-08-20T05:36:02;24.52;;;19.17;;
56893;SDS011;43392;50.078;13.704;2023-08-20T05:38:29;21.90;;;17.40;;
56893;SDS011;43392;50.078;13.704;2023-08-20T05:40:55;19.88;;;15.73;;
56893;SDS011;43392;50.078;13.704;2023-08-20T05:43:22;25.33;;;18.80;;
56893;SDS011;43392;50.078;13.704;2023-08-20T05:45:50;27.75;;;21.20;;
56893;SDS011;43392;50.078;13.704;2023-08-20T05:48:16;24.92;;;19.25;;
56893;SDS011;43392;50.078;13.704;2023-08-20T05:50:44;23.17;;;18.90;;
56893;SDS011;43392;50.078;13.704;2023-08-20T05:53:11;22.20;;;17.98;;
56893;SDS011;43392;50.078;13.704;2023-08-20T05:55:37;25.33;;;18.52;;
56893;SDS011;43392;50.078;13.704;2023-08-20T05:58:05;24.90;;;20.00;;
56893;SDS011;43392;50.078;13.704;2023-08-20T06:00:32;23.80;;;18.77;;
56893;SDS011;43392;50.078;13.704;2023-08-20T06:02:59;25.52;;;19.58;;
56893;SDS011;43392;50.078;13.704;2023-08-20T06:05:26;23.85;;;19.48;;
56893;SDS011;43392;50.078;13.704;2023-08-20T06:07:53;28.10;;;19.48;;
56893;SDS011;43392;50.078;13.704;2023-08-20T06:10:19;25.70;;;19.00;;
56893;SDS011;43392;50.078;13.704;2023-08-20T06:12:46;25.45;;;19.45;;
56893;SDS011;43392;50.078;13.704;2023-08-20T06:15:13;27.05;;;17.42;;
56893;SDS011;43392;50.078;13.704;2023-08-20T06:17:40;25.20;;;17.73;;
56893;SDS011;43392;50.078;13.704;2023-08-20T06:20:08;22.23;;;16.27;;
56893;SDS011;43392;50.078;13.704;2023-08-20T06:22:36;24.02;;;17.25;;
56893;SDS011;43392;50.078;13.704;2023-08-20T06:25:04;22.98;;;16.38;;
56893;SDS011;43392;50.078;13.704;2023-08-20T06:27:31;19.15;;;14.80;;
56893;SDS011;43392;50.078;13.704;2023-08-20T06:29:58;17.52;;;13.57;;
56893;SDS011;43392;50.078;13.704;2023-08-20T06:32:25;18.17;;;14.15;;
56893;SDS011;43392;50.078;13.704;2023-08-20T06:34:51;20.23;;;13.70;;
56893;SDS011;43392;50.078;13.704;2023-08-20T06:37:19;23.75;;;17.13;;
56893;SDS011;43392;50.078;13.704;2023-08-20T06:39:46;20.48;;;15.93;;
56893;SDS011;43392;50.078;13.704;2023-08-20T06:42:12;23.52;;;15.50;;
56893;SDS011;43392;50.078;13.704;2023-08-20T06:44:39;22.10;;;14.98;;
56893;SDS011;43392;50.078;13.704;2023-08-20T06:47:06;20.25;;;14.43;;
56893;SDS011;43392;50.078;13.704;2023-08-20T06:49:32;22.60;;;14.57;;
56893;SDS011;43392;50.078;13.704;2023-08-20T06:51:59;24.00;;;17.95;;
56893;SDS011;43392;50.078;13.704;2023-08-20T06:54:27;25.75;;;17.33;;
56893;SDS011;43392;50.078;13.704;2023-08-20T06:56:53;21.90;;;16.05;;
56893;SDS011;43392;50.078;13.704;2023-08-20T06:59:20;21.92;;;15.40;;
56893;SDS011;43392;50.078;13.704;2023-08-20T07:01:48;21.05;;;14.82;;
56893;SDS011;43392;50.078;13.704;2023-08-20T07:04:14;25.58;;;13.98;;
56893;SDS011;43392;50.078;13.704;2023-08-20T07:06:41;18.77;;;13.27;;
56893;SDS011;43392;50.078;13.704;2023-08-20T07:09:07;21.65;;;13.13;;
56893;SDS011;43392;50.078;13.704;2023-08-20T07:11:36;17.55;;;13.40;;
56893;SDS011;43392;50.078;13.704;2023-08-20T07:14:03;19.95;;;13.90;;
56893;SDS011;43392;50.078;13.704;2023-08-20T07:16:29;18.70;;;13.10;;
56893;SDS011;43392;50.078;13.704;2023-08-20T07:18:57;17.33;;;11.48;;
56893;SDS011;43392;50.078;13.704;2023-08-20T07:21:24;18.77;;;11.02;;
56893;SDS011;43392;50.078;13.704;2023-08-20T07:23:50;14.02;;;9.38;;
56893;SDS011;43392;50.078;13.704;2023-08-20T07:26:17;14.70;;;8.85;;
56893;SDS011;43392;50.078;13.704;2023-08-20T07:28:45;15.93;;;8.77;;
56893;SDS011;43392;50.078;13.704;2023-08-20T07:31:24;14.48;;;8.23;;
56893;SDS011;43392;50.078;13.704;2023-08-20T07:33:52;14.90;;;7.97;;
56893;SDS011;43392;50.078;13.704;2023-08-20T07:36:20;11.88;;;7.50;;
56893;SDS011;43392;50.078;13.704;2023-08-20T07:38:47;13.20;;;7.43;;
56893;SDS011;43392;50.078;13.704;2023-08-20T07:41:14;14.27;;;8.23;;
56893;SDS011;43392;50.078;13.704;2023-08-20T07:43:41;12.40;;;7.57;;
56893;SDS011;43392;50.078;13.704;2023-08-20T07:46:09;11.57;;;7.85;;
56893;SDS011;43392;50.078;13.704;2023-08-20T07:48:36;16.58;;;8.13;;
56893;SDS011;43392;50.078;13.704;2023-08-20T07:51:03;11.75;;;8.00;;
56893;SDS011;43392;50.078;13.704;2023-08-20T07:53:30;11.77;;;7.78;;
56893;SDS011;43392;50.078;13.704;2023-08-20T07:55:57;11.23;;;8.07;;
56893;SDS011;43392;50.078;13.704;2023-08-20T07:58:26;14.48;;;7.97;;
56893;SDS011;43392;50.078;13.704;2023-08-20T08:00:53;11.48;;;8.15;;
56893;SDS011;43392;50.078;13.704;2023-08-20T08:03:21;12.35;;;8.25;;
56893;SDS011;43392;50.078;13.704;2023-08-20T08:05:48;11.93;;;8.52;;
56893;SDS011;43392;50.078;13.704;2023-08-20T08:08:15;14.40;;;8.40;;
56893;SDS011;43392;50.078;13.704;2023-08-20T08:10:42;15.15;;;8.82;;
56893;SDS011;43392;50.078;13.704;2023-08-20T08:13:10;14.55;;;8.02;;
56893;SDS011;43392;50.078;13.704;2023-08-20T08:15:36;15.80;;;9.45;;
56893;SDS011;43392;50.078;13.704;2023-08-20T08:18:03;14.25;;;9.07;;
56893;SDS011;43392;50.078;13.704;2023-08-20T08:20:32;12.75;;;9.77;;
56893;SDS011;43392;50.078;13.704;2023-08-20T08:22:58;13.63;;;9.73;;
56893;SDS011;43392;50.078;13.704;2023-08-20T08:25:25;16.65;;;9.88;;
56893;SDS011;43392;50.078;13.704;2023-08-20T08:27:52;16.38;;;10.00;;
56893;SDS011;43392;50.078;13.704;2023-08-20T08:30:19;19.48;;;10.30;;
56893;SDS011;43392;50.078;13.704;2023-08-20T08:32:46;15.35;;;9.68;;
56893;SDS011;43392;50.078;13.704;2023-08-20T08:35:12;16.27;;;9.32;;
56893;SDS011;43392;50.078;13.704;2023-08-20T08:37:40;13.80;;;10.27;;
56893;SDS011;43392;50.078;13.704;2023-08-20T08:40:07;19.60;;;9.85;;
56893;SDS011;43392;50.078;13.704;2023-08-20T08:42:35;17.55;;;10.15;;
56893;SDS011;43392;50.078;13.704;2023-08-20T08:45:02;14.10;;;10.27;;
56893;SDS011;43392;50.078;13.704;2023-08-20T08:47:29;13.98;;;9.93;;
56893;SDS011;43392;50.078;13.704;2023-08-20T08:49:56;14.23;;;9.68;;
56893;SDS011;43392;50.078;13.704;2023-08-20T08:52:23;15.13;;;10.18;;
56893;SDS011;43392;50.078;13.704;2023-08-20T08:54:52;16.25;;;10.07;;
56893;SDS011;43392;50.078;13.704;2023-08-20T08:57:19;13.75;;;9.50;;
56893;SDS011;43392;50.078;13.704;2023-08-20T08:59:46;17.20;;;9.27;;
56893;SDS011;43392;50.078;13.704;2023-08-20T09:02:13;16.98;;;8.82;;
56893;SDS011;43392;50.078;13.704;2023-08-20T09:04:39;18.08;;;10.20;;
56893;SDS011;43392;50.078;13.704;2023-08-20T09:07:11;15.13;;;11.00;;
56893;SDS011;43392;50.078;13.704;2023-08-20T09:09:41;14.40;;;10.15;;
56893;SDS011;43392;50.078;13.704;2023-08-20T09:12:19;14.27;;;10.13;;
56893;SDS011;43392;50.078;13.704;2023-08-20T09:14:46;15.32;;;9.90;;
56893;SDS011;43392;50.078;13.704;2023-08-20T09:17:14;16.08;;;9.38;;
56893;SDS011;43392;50.078;13.704;2023-08-20T09:19:42;12.27;;;8.38;;
56893;SDS011;43392;50.078;13.704;2023-08-20T09:22:10;13.95;;;9.40;;
56893;SDS011;43392;50.078;13.704;2023-08-20T09:24:39;13.15;;;9.40;;
56893;SDS011;43392;50.078;13.704;2023-08-20T09:27:07;13.93;;;9.10;;
56893;SDS011;43392;50.078;13.704;2023-08-20T09:29:38;12.55;;;8.77;;
56893;SDS011;43392;50.078;13.704;2023-08-20T09:32:13;13.30;;;9.13;;
56893;SDS011;43392;50.078;13.704;2023-08-20T09:37:09;13.50;;;8.00;;
56893;SDS011;43392;50.078;13.704;2023-08-20T09:39:36;11.52;;;8.07;;
56893;SDS011;43392;50.078;13.704;2023-08-20T09:42:03;13.18;;;7.63;;
56893;SDS011;43392;50.078;13.704;2023-08-20T09:44:32;16.38;;;7.93;;
56893;SDS011;43392;50.078;13.704;2023-08-20T09:47:02;14.10;;;7.85;;
56893;SDS011;43392;50.078;13.704;2023-08-20T09:49:30;10.10;;;6.60;;
56893;SDS011;43392;50.078;13.704;2023-08-20T09:52:02;11.40;;;5.90;;
56893;SDS011;43392;50.078;13.704;2023-08-20T09:54:33;9.52;;;6.43;;
56893;SDS011;43392;50.078;13.704;2023-08-20T09:57:07;14.13;;;6.45;;
56893;SDS011;43392;50.078;13.704;2023-08-20T09:59:38;11.65;;;6.20;;
56893;SDS011;43392;50.078;13.704;2023-08-20T10:02:09;12.75;;;6.05;;
56893;SDS011;43392;50.078;13.704;2023-08-20T10:04:38;8.48;;;5.80;;
56893;SDS011;43392;50.078;13.704;2023-08-20T10:07:05;9.15;;;5.90;;
56893;SDS011;43392;50.078;13.704;2023-08-20T10:09:32;10.65;;;5.32;;
56893;SDS011;43392;50.078;13.704;2023-08-20T10:11:59;9.80;;;5.35;;
56893;SDS011;43392;50.078;13.704;2023-08-20T10:14:27;8.57;;;5.18;;
56893;SDS011;43392;50.078;13.704;2023-08-20T10:16:54;11.02;;;5.22;;
56893;SDS011;43392;50.078;13.704;2023-08-20T10:19:22;9.00;;;5.80;;
56893;SDS011;43392;50.078;13.704;2023-08-20T10:21:52;9.38;;;5.60;;
56893;SDS011;43392;50.078;13.704;2023-08-20T10:24:19;9.02;;;5.22;;
56893;SDS011;43392;50.078;13.704;2023-08-20T10:26:46;10.82;;;5.20;;
56893;SDS011;43392;50.078;13.704;2023-08-20T10:32:03;12.10;;;5.83;;
56893;SDS011;43392;50.078;13.704;2023-08-20T10:34:33;9.63;;;5.30;;
56893;SDS011;43392;50.078;13.704;2023-08-20T10:37:01;10.10;;;5.18;;
56893;SDS011;43392;50.078;13.704;2023-08-20T10:39:29;9.45;;;5.20;;
56893;SDS011;43392;50.078;13.704;2023-08-20T10:42:07;11.63;;;5.07;;
56893;SDS011;43392;50.078;13.704;2023-08-20T10:47:22;8.02;;;4.93;;
56893;SDS011;43392;50.078;13.704;2023-08-20T10:49:52;7.50;;;4.50;;
56893;SDS011;43392;50.078;13.704;2023-08-20T10:52:18;11.55;;;5.95;;
56893;SDS011;43392;50.078;13.704;2023-08-20T10:54:45;12.30;;;5.55;;
56893;SDS011;43392;50.078;13.704;2023-08-20T10:57:15;10.02;;;5.43;;
56893;SDS011;43392;50.078;13.704;2023-08-20T10:59:42;10.05;;;5.00;;
56893;SDS011;43392;50.078;13.704;2023-08-20T11:02:10;11.02;;;5.10;;
56893;SDS011;43392;50.078;13.704;2023-08-20T11:04:43;10.32;;;4.70;;
56893;SDS011;43392;50.078;13.704;2023-08-20T11:07:11;8.65;;;4.43;;
56893;SDS011;43392;50.078;13.704;2023-08-20T11:09:44;17.05;;;5.07;;
56893;SDS011;43392;50.078;13.704;2023-08-20T11:12:14;12.45;;;4.97;;
56893;SDS011;43392;50.078;13.704;2023-08-20T11:14:40;7.93;;;4.70;;
56893;SDS011;43392;50.078;13.704;2023-08-20T11:17:07;11.18;;;4.60;;
56893;SDS011;43392;50.078;13.704;2023-08-20T11:19:34;10.05;;;4.78;;
56893;SDS011;43392;50.078;13.704;2023-08-20T11:22:01;10.82;;;4.80;;
56893;SDS011;43392;50.078;13.704;2023-08-20T11:24:29;10.00;;;4.65;;
56893;SDS011;43392;50.078;13.704;2023-08-20T11:26:57;8.65;;;4.88;;
56893;SDS011;43392;50.078;13.704;2023-08-20T11:29:25;7.90;;;5.28;;
56893;SDS011;43392;50.078;13.704;2023-08-20T11:31:52;11.32;;;5.07;;
56893;SDS011;43392;50.078;13.704;2023-08-20T11:34:18;8.40;;;5.10;;
56893;SDS011;43392;50.078;13.704;2023-08-20T11:36:45;9.88;;;5.10;;
56893;SDS011;43392;50.078;13.704;2023-08-20T11:39:13;8.02;;;5.05;;
56893;SDS011;43392;50.078;13.704;2023-08-20T11:41:41;10.25;;;5.20;;
56893;SDS011;43392;50.078;13.704;2023-08-20T11:44:08;10.88;;;4.63;;
56893;SDS011;43392;50.078;13.704;2023-08-20T11:46:41;11.15;;;4.70;;
56893;SDS011;43392;50.078;13.704;2023-08-20T11:49:09;9.50;;;4.82;;
56893;SDS011;43392;50.078;13.704;2023-08-20T11:51:37;7.75;;;4.82;;
56893;SDS011;43392;50.078;13.704;2023-08-20T11:54:04;8.35;;;4.78;;
56893;SDS011;43392;50.078;13.704;2023-08-20T11:56:32;10.23;;;5.13;;
56893;SDS011;43392;50.078;13.704;2023-08-20T11:59:01;8.88;;;4.75;;
56893;SDS011;43392;50.078;13.704;2023-08-20T12:01:29;9.43;;;5.15;;
56893;SDS011;43392;50.078;13.704;2023-08-20T12:03:59;8.43;;;4.97;;
56893;SDS011;43392;50.078;13.704;2023-08-20T12:06:26;8.40;;;4.80;;
56893;SDS011;43392;50.078;13.704;2023-08-20T12:08:55;10.27;;;4.90;;
56893;SDS011;43392;50.078;13.704;2023-08-20T12:11:23;11.32;;;5.35;;
56893;SDS011;43392;50.078;13.704;2023-08-20T12:13:50;9.40;;;5.20;;
56893;SDS011;43392;50.078;13.704;2023-08-20T12:16:21;10.23;;;4.78;;
56893;SDS011;43392;50.078;13.704;2023-08-20T12:18:49;8.13;;;4.70;;
56893;SDS011;43392;50.078;13.704;2023-08-20T12:21:15;10.07;;;5.70;;
56893;SDS011;43392;50.078;13.704;2023-08-20T12:23:42;9.38;;;4.95;;
56893;SDS011;43392;50.078;13.704;2023-08-20T12:26:09;11.40;;;4.97;;
56893;SDS011;43392;50.078;13.704;2023-08-20T12:28:35;9.32;;;4.65;;
56893;SDS011;43392;50.078;13.704;2023-08-20T12:31:02;13.38;;;5.20;;
56893;SDS011;43392;50.078;13.704;2023-08-20T12:33:30;15.18;;;5.15;;
56893;SDS011;43392;50.078;13.704;2023-08-20T12:35:57;11.13;;;5.15;;
56893;SDS011;43392;50.078;13.704;2023-08-20T12:38:24;10.00;;;5.20;;
56893;SDS011;43392;50.078;13.704;2023-08-20T12:40:51;11.80;;;5.50;;
56893;SDS011;43392;50.078;13.704;2023-08-20T12:43:17;14.02;;;5.78;;
56893;SDS011;43392;50.078;13.704;2023-08-20T12:45:44;10.68;;;5.35;;
56893;SDS011;43392;50.078;13.704;2023-08-20T12:48:11;11.30;;;5.22;;
56893;SDS011;43392;50.078;13.704;2023-08-20T12:50:39;11.15;;;5.32;;
56893;SDS011;43392;50.078;13.704;2023-08-20T12:53:06;8.20;;;4.93;;
56893;SDS011;43392;50.078;13.704;2023-08-20T12:55:32;10.45;;;5.32;;
56893;SDS011;43392;50.078;13.704;2023-08-20T12:57:59;8.50;;;5.60;;
56893;SDS011;43392;50.078;13.704;2023-08-20T13:00:26;10.38;;;5.50;;
56893;SDS011;43392;50.078;13.704;2023-08-20T13:02:53;10.00;;;5.85;;
56893;SDS011;43392;50.078;13.704;2023-08-20T13:05:21;9.63;;;5.25;;
56893;SDS011;43392;50.078;13.704;2023-08-20T13:07:50;9.73;;;5.32;;
56893;SDS011;43392;50.078;13.704;2023-08-20T13:10:18;9.40;;;5.13;;
56893;SDS011;43392;50.078;13.704;2023-08-20T13:12:46;10.80;;;5.20;;
56893;SDS011;43392;50.078;13.704;2023-08-20T13:15:14;9.47;;;5.10;;
56893;SDS011;43392;50.078;13.704;2023-08-20T13:17:42;9.13;;;4.93;;
56893;SDS011;43392;50.078;13.704;2023-08-20T13:20:09;12.30;;;4.82;;
56893;SDS011;43392;50.078;13.704;2023-08-20T13:22:36;10.00;;;4.50;;
56893;SDS011;43392;50.078;13.704;2023-08-20T13:25:05;9.98;;;4.13;;
56893;SDS011;43392;50.078;13.704;2023-08-20T13:27:32;11.93;;;4.17;;
56893;SDS011;43392;50.078;13.704;2023-08-20T13:29:59;15.20;;;4.30;;
56893;SDS011;43392;50.078;13.704;2023-08-20T13:32:26;10.00;;;3.95;;
56893;SDS011;43392;50.078;13.704;2023-08-20T13:34:53;10.18;;;4.15;;
56893;SDS011;43392;50.078;13.704;2023-08-20T13:37:19;12.02;;;4.03;;
56893;SDS011;43392;50.078;13.704;2023-08-20T13:39:46;10.63;;;3.55;;
56893;SDS011;43392;50.078;13.704;2023-08-20T13:42:14;11.52;;;3.83;;
56893;SDS011;43392;50.078;13.704;2023-08-20T13:44:41;8.40;;;4.15;;
56893;SDS011;43392;50.078;13.704;2023-08-20T13:47:07;8.63;;;4.20;;
56893;SDS011;43392;50.078;13.704;2023-08-20T13:49:34;8.75;;;3.42;;
56893;SDS011;43392;50.078;13.704;2023-08-20T13:52:00;7.85;;;3.25;;
56893;SDS011;43392;50.078;13.704;2023-08-20T13:54:27;6.72;;;3.58;;
56893;SDS011;43392;50.078;13.704;2023-08-20T13:56:54;9.57;;;3.30;;
56893;SDS011;43392;50.078;13.704;2023-08-20T13:59:22;6.32;;;2.80;;
56893;SDS011;43392;50.078;13.704;2023-08-20T14:01:49;8.93;;;3.22;;
56893;SDS011;43392;50.078;13.704;2023-08-20T14:04:16;5.43;;;3.05;;
56893;SDS011;43392;50.078;13.704;2023-08-20T14:06:42;5.75;;;3.17;;
56893;SDS011;43392;50.078;13.704;2023-08-20T14:09:09;7.03;;;2.85;;
56893;SDS011;43392;50.078;13.704;2023-08-20T14:11:35;6.60;;;2.72;;
56893;SDS011;43392;50.078;13.704;2023-08-20T14:14:02;8.52;;;2.72;;
56893;SDS011;43392;50.078;13.704;2023-08-20T14:16:30;7.22;;;2.97;;
56893;SDS011;43392;50.078;13.704;2023-08-20T14:18:57;4.45;;;2.58;;
56893;SDS011;43392;50.078;13.704;2023-08-20T14:21:23;5.20;;;2.60;;
56893;SDS011;43392;50.078;13.704;2023-08-20T14:23:50;5.88;;;3.30;;
56893;SDS011;43392;50.078;13.704;2023-08-20T14:26:17;5.22;;;3.05;;
56893;SDS011;43392;50.078;13.704;2023-08-20T14:28:44;5.65;;;3.30;;
56893;SDS011;43392;50.078;13.704;2023-08-20T14:31:10;9.10;;;3.70;;